sensor_id;sensor_type;location;lat;lon;timestamp;temperature;humidity
39099;DHT22;24844;52.380;7.018;2023-08-01T00:00:39;16.50;99.90
39099;DHT22;24844;52.380;7.018;2023-08-01T00:03:05;16.50;99.90
39099;DHT22;24844;52.380;7.018;2023-08-01T00:05:30;16.50;99.90
39099;DHT22;24844;52.380;7.018;2023-08-01T00:07:56;16.40;99.90
39099;DHT22;24844;52.380;7.018;2023-08-01T00:10:22;16.30;99.90
39099;DHT22;24844;52.380;7.018;2023-08-01T00:12:48;16.40;99.90
39099;DHT22;24844;52.380;7.018;2023-08-01T00:15:13;16.30;99.90
39099;DHT22;24844;52.380;7.018;2023-08-01T00:17:39;16.40;99.90
39099;DHT22;24844;52.380;7.018;2023-08-01T00:20:06;16.40;99.90
39099;DHT22;24844;52.380;7.018;2023-08-01T00:22:32;16.40;99.90
39099;DHT22;24844;52.380;7.018;2023-08-01T00:24:57;16.40;99.90
39099;DHT22;24844;52.380;7.018;2023-08-01T00:27:23;16.20;99.90
39099;DHT22;24844;52.380;7.018;2023-08-01T00:29:49;16.20;99.90
39099;DHT22;24844;52.380;7.018;2023-08-01T00:32:15;16.30;99.90
39099;DHT22;24844;52.380;7.018;2023-08-01T00:34:41;16.30;99.90
39099;DHT22;24844;52.380;7.018;2023-08-01T00:37:06;16.30;99.90
39099;DHT22;24844;52.380;7.018;2023-08-01T00:39:32;16.30;99.90
39099;DHT22;24844;52.380;7.018;2023-08-01T00:41:58;16.20;99.90
39099;DHT22;24844;52.380;7.018;2023-08-01T00:44:24;16.20;99.90
39099;DHT22;24844;52.380;7.018;2023-08-01T00:46:50;16.30;99.90
39099;DHT22;24844;52.380;7.018;2023-08-01T00:49:15;16.50;99.90
39099;DHT22;24844;52.380;7.018;2023-08-01T00:51:42;16.50;99.90
39099;DHT22;24844;52.380;7.018;2023-08-01T00:54:08;16.50;99.90
39099;DHT22;24844;52.380;7.018;2023-08-01T00:56:34;16.50;99.90
39099;DHT22;24844;52.380;7.018;2023-08-01T00:59:00;16.50;99.90
39099;DHT22;24844;52.380;7.018;2023-08-01T01:01:26;16.40;99.90
39099;DHT22;24844;52.380;7.018;2023-08-01T01:03:52;16.40;99.90
39099;DHT22;24844;52.380;7.018;2023-08-01T01:06:37;16.50;99.90
39099;DHT22;24844;52.380;7.018;2023-08-01T01:09:15;16.60;99.90
39099;DHT22;24844;52.380;7.018;2023-08-01T01:11:40;16.60;99.90
39099;DHT22;24844;52.380;7.018;2023-08-01T01:14:06;16.60;99.90
39099;DHT22;24844;52.380;7.018;2023-08-01T01:16:32;16.30;99.90
39099;DHT22;24844;52.380;7.018;2023-08-01T01:18:57;16.40;99.90
39099;DHT22;24844;52.380;7.018;2023-08-01T01:21:23;16.30;99.90
39099;DHT22;24844;52.380;7.018;2023-08-01T01:23:49;16.40;99.90
39099;DHT22;24844;52.380;7.018;2023-08-01T01:26:16;16.40;99.90
39099;DHT22;24844;52.380;7.018;2023-08-01T01:28:49;16.40;99.90
39099;DHT22;24844;52.380;7.018;2023-08-01T01:31:16;16.40;99.90
39099;DHT22;24844;52.380;7.018;2023-08-01T01:33:42;16.50;99.90
39099;DHT22;24844;52.380;7.018;2023-08-01T01:36:08;16.60;99.90
39099;DHT22;24844;52.380;7.018;2023-08-01T01:38:33;16.60;99.90
39099;DHT22;24844;52.380;7.018;2023-08-01T01:40:59;16.50;99.90
39099;DHT22;24844;52.380;7.018;2023-08-01T01:43:25;16.60;99.90
39099;DHT22;24844;52.380;7.018;2023-08-01T01:45:50;16.60;99.90
39099;DHT22;24844;52.380;7.018;2023-08-01T01:48:16;16.70;99.90
39099;DHT22;24844;52.380;7.018;2023-08-01T01:50:41;16.70;99.90
39099;DHT22;24844;52.380;7.018;2023-08-01T01:53:07;16.60;99.90
39099;DHT22;24844;52.380;7.018;2023-08-01T01:55:33;16.50;99.90
39099;DHT22;24844;52.380;7.018;2023-08-01T01:57:59;16.60;99.90
39099;DHT22;24844;52.380;7.018;2023-08-01T02:00:25;16.50;99.90
39099;DHT22;24844;52.380;7.018;2023-08-01T02:02:51;16.40;99.90
39099;DHT22;24844;52.380;7.018;2023-08-01T02:05:16;16.40;99.90
39099;DHT22;24844;52.380;7.018;2023-08-01T02:07:42;16.40;99.90
39099;DHT22;24844;52.380;7.018;2023-08-01T02:10:08;16.40;99.90
39099;DHT22;24844;52.380;7.018;2023-08-01T02:12:34;16.30;99.90
39099;DHT22;24844;52.380;7.018;2023-08-01T02:15:01;16.40;99.90
39099;DHT22;24844;52.380;7.018;2023-08-01T02:17:26;16.40;99.90
39099;DHT22;24844;52.380;7.018;2023-08-01T02:19:52;16.40;99.90
39099;DHT22;24844;52.380;7.018;2023-08-01T02:22:18;16.30;99.90
39099;DHT22;24844;52.380;7.018;2023-08-01T02:24:43;16.30;99.90
39099;DHT22;24844;52.380;7.018;2023-08-01T02:27:09;16.30;99.90
39099;DHT22;24844;52.380;7.018;2023-08-01T02:29:35;16.30;99.90
39099;DHT22;24844;52.380;7.018;2023-08-01T02:32:00;16.30;99.90
39099;DHT22;24844;52.380;7.018;2023-08-01T02:34:27;16.40;99.90
39099;DHT22;24844;52.380;7.018;2023-08-01T02:36:52;16.30;99.90
39099;DHT22;24844;52.380;7.018;2023-08-01T02:39:18;16.20;99.90
39099;DHT22;24844;52.380;7.018;2023-08-01T02:41:44;16.30;99.90
39099;DHT22;24844;52.380;7.018;2023-08-01T02:44:09;16.20;99.90
39099;DHT22;24844;52.380;7.018;2023-08-01T02:46:35;16.20;99.90
39099;DHT22;24844;52.380;7.018;2023-08-01T02:49:01;16.20;99.90
39099;DHT22;24844;52.380;7.018;2023-08-01T02:51:26;16.20;99.90
39099;DHT22;24844;52.380;7.018;2023-08-01T02:53:52;16.10;99.90
39099;DHT22;24844;52.380;7.018;2023-08-01T02:56:18;16.00;99.90
39099;DHT22;24844;52.380;7.018;2023-08-01T02:58:43;15.80;99.90
39099;DHT22;24844;52.380;7.018;2023-08-01T03:01:09;15.90;99.90
39099;DHT22;24844;52.380;7.018;2023-08-01T03:03:36;15.90;99.90
39099;DHT22;24844;52.380;7.018;2023-08-01T03:06:02;15.90;99.90
39099;DHT22;24844;52.380;7.018;2023-08-01T03:08:28;15.80;99.90
39099;DHT22;24844;52.380;7.018;2023-08-01T03:10:57;15.80;99.90
39099;DHT22;24844;52.380;7.018;2023-08-01T03:13:23;15.80;99.90
39099;DHT22;24844;52.380;7.018;2023-08-01T03:15:48;15.70;99.90
39099;DHT22;24844;52.380;7.018;2023-08-01T03:18:14;15.70;99.90
39099;DHT22;24844;52.380;7.018;2023-08-01T03:20:40;15.70;99.90
39099;DHT22;24844;52.380;7.018;2023-08-01T03:23:05;15.70;99.90
39099;DHT22;24844;52.380;7.018;2023-08-01T03:25:32;15.70;99.90
39099;DHT22;24844;52.380;7.018;2023-08-01T03:27:57;15.70;99.90
39099;DHT22;24844;52.380;7.018;2023-08-01T03:30:23;15.80;99.90
39099;DHT22;24844;52.380;7.018;2023-08-01T03:32:49;15.70;99.90
39099;DHT22;24844;52.380;7.018;2023-08-01T03:35:15;15.80;99.90
39099;DHT22;24844;52.380;7.018;2023-08-01T03:37:41;15.80;99.90
39099;DHT22;24844;52.380;7.018;2023-08-01T03:40:07;15.70;99.90
39099;DHT22;24844;52.380;7.018;2023-08-01T03:42:36;15.80;99.90
39099;DHT22;24844;52.380;7.018;2023-08-01T03:45:03;15.80;99.90
39099;DHT22;24844;52.380;7.018;2023-08-01T03:47:28;15.70;99.90
39099;DHT22;24844;52.380;7.018;2023-08-01T03:49:54;15.70;99.90
39099;DHT22;24844;52.380;7.018;2023-08-01T03:52:20;15.70;99.90
39099;DHT22;24844;52.380;7.018;2023-08-01T03:54:45;15.60;99.90
39099;DHT22;24844;52.380;7.018;2023-08-01T03:57:11;15.60;99.90
39099;DHT22;24844;52.380;7.018;2023-08-01T03:59:37;15.50;99.90
39099;DHT22;24844;52.380;7.018;2023-08-01T04:02:02;15.50;99.90
39099;DHT22;24844;52.380;7.018;2023-08-01T04:04:28;15.50;99.90
39099;DHT22;24844;52.380;7.018;2023-08-01T04:06:56;15.50;99.90
39099;DHT22;24844;52.380;7.018;2023-08-01T04:09:22;15.50;99.90
39099;DHT22;24844;52.380;7.018;2023-08-01T04:11:47;15.50;99.90
39099;DHT22;24844;52.380;7.018;2023-08-01T04:14:13;15.50;99.90
39099;DHT22;24844;52.380;7.018;2023-08-01T04:16:39;15.50;99.90
39099;DHT22;24844;52.380;7.018;2023-08-01T04:19:04;15.60;99.90
39099;DHT22;24844;52.380;7.018;2023-08-01T04:21:30;15.50;99.90
39099;DHT22;24844;52.380;7.018;2023-08-01T04:23:56;15.40;99.90
39099;DHT22;24844;52.380;7.018;2023-08-01T04:26:21;15.50;99.90
39099;DHT22;24844;52.380;7.018;2023-08-01T04:28:47;15.50;99.90
39099;DHT22;24844;52.380;7.018;2023-08-01T04:31:13;15.50;99.90
39099;DHT22;24844;52.380;7.018;2023-08-01T04:33:39;15.50;99.90
39099;DHT22;24844;52.380;7.018;2023-08-01T04:36:04;15.70;99.90
39099;DHT22;24844;52.380;7.018;2023-08-01T04:38:30;15.70;99.90
39099;DHT22;24844;52.380;7.018;2023-08-01T04:40:56;15.60;99.90
39099;DHT22;24844;52.380;7.018;2023-08-01T04:43:21;15.70;99.90
39099;DHT22;24844;52.380;7.018;2023-08-01T04:45:47;15.60;99.90
39099;DHT22;24844;52.380;7.018;2023-08-01T04:48:12;15.70;99.90
39099;DHT22;24844;52.380;7.018;2023-08-01T04:50:38;15.90;99.90
39099;DHT22;24844;52.380;7.018;2023-08-01T04:53:04;15.90;99.90
39099;DHT22;24844;52.380;7.018;2023-08-01T04:55:29;15.90;99.90
39099;DHT22;24844;52.380;7.018;2023-08-01T04:57:55;15.90;99.90
39099;DHT22;24844;52.380;7.018;2023-08-01T05:00:21;15.90;99.90
39099;DHT22;24844;52.380;7.018;2023-08-01T05:02:46;15.90;99.90
39099;DHT22;24844;52.380;7.018;2023-08-01T05:05:12;16.00;99.90
39099;DHT22;24844;52.380;7.018;2023-08-01T05:07:37;16.00;99.90
39099;DHT22;24844;52.380;7.018;2023-08-01T05:10:03;16.00;99.90
39099;DHT22;24844;52.380;7.018;2023-08-01T05:12:29;15.80;99.90
39099;DHT22;24844;52.380;7.018;2023-08-01T05:14:55;15.90;99.90
39099;DHT22;24844;52.380;7.018;2023-08-01T05:17:20;16.10;99.90
39099;DHT22;24844;52.380;7.018;2023-08-01T05:19:46;16.20;99.90
39099;DHT22;24844;52.380;7.018;2023-08-01T05:22:11;16.20;99.90
39099;DHT22;24844;52.380;7.018;2023-08-01T05:24:37;16.20;99.90
39099;DHT22;24844;52.380;7.018;2023-08-01T05:27:03;16.20;99.90
39099;DHT22;24844;52.380;7.018;2023-08-01T05:29:28;16.20;99.90
39099;DHT22;24844;52.380;7.018;2023-08-01T05:31:54;16.20;99.90
39099;DHT22;24844;52.380;7.018;2023-08-01T05:34:20;16.20;99.90
39099;DHT22;24844;52.380;7.018;2023-08-01T05:36:45;16.10;99.90
39099;DHT22;24844;52.380;7.018;2023-08-01T05:39:11;16.00;99.90
39099;DHT22;24844;52.380;7.018;2023-08-01T05:41:36;16.10;99.90
39099;DHT22;24844;52.380;7.018;2023-08-01T05:44:02;16.10;99.90
39099;DHT22;24844;52.380;7.018;2023-08-01T05:46:28;16.20;99.90
39099;DHT22;24844;52.380;7.018;2023-08-01T05:48:53;16.20;99.90
39099;DHT22;24844;52.380;7.018;2023-08-01T05:51:19;16.20;99.90
39099;DHT22;24844;52.380;7.018;2023-08-01T05:53:45;16.20;99.90
39099;DHT22;24844;52.380;7.018;2023-08-01T05:56:10;16.00;99.90
39099;DHT22;24844;52.380;7.018;2023-08-01T05:58:36;16.00;99.90
39099;DHT22;24844;52.380;7.018;2023-08-01T06:01:02;16.10;99.90
39099;DHT22;24844;52.380;7.018;2023-08-01T06:03:27;16.10;99.90
39099;DHT22;24844;52.380;7.018;2023-08-01T06:05:53;16.10;99.90
39099;DHT22;24844;52.380;7.018;2023-08-01T06:08:19;16.10;99.90
39099;DHT22;24844;52.380;7.018;2023-08-01T06:10:44;16.00;99.90
39099;DHT22;24844;52.380;7.018;2023-08-01T06:13:10;16.10;99.90
39099;DHT22;24844;52.380;7.018;2023-08-01T06:15:36;16.10;99.90
39099;DHT22;24844;52.380;7.018;2023-08-01T06:18:02;16.20;99.90
39099;DHT22;24844;52.380;7.018;2023-08-01T06:20:28;16.30;99.90
39099;DHT22;24844;52.380;7.018;2023-08-01T06:22:53;16.20;99.90
39099;DHT22;24844;52.380;7.018;2023-08-01T06:25:19;16.40;99.90
39099;DHT22;24844;52.380;7.018;2023-08-01T06:27:45;16.50;99.90
39099;DHT22;24844;52.380;7.018;2023-08-01T06:30:10;16.60;99.90
39099;DHT22;24844;52.380;7.018;2023-08-01T06:32:36;16.60;99.90
39099;DHT22;24844;52.380;7.018;2023-08-01T06:35:02;16.70;99.90
39099;DHT22;24844;52.380;7.018;2023-08-01T06:37:28;16.60;99.90
39099;DHT22;24844;52.380;7.018;2023-08-01T06:39:56;16.60;99.90
39099;DHT22;24844;52.380;7.018;2023-08-01T06:42:22;16.50;99.90
39099;DHT22;24844;52.380;7.018;2023-08-01T06:44:48;16.50;99.90
39099;DHT22;24844;52.380;7.018;2023-08-01T06:47:13;16.30;99.90
39099;DHT22;24844;52.380;7.018;2023-08-01T06:49:39;16.50;99.90
39099;DHT22;24844;52.380;7.018;2023-08-01T06:52:05;16.50;99.90
39099;DHT22;24844;52.380;7.018;2023-08-01T06:54:32;16.40;99.90
39099;DHT22;24844;52.380;7.018;2023-08-01T06:56:57;16.40;99.90
39099;DHT22;24844;52.380;7.018;2023-08-01T06:59:24;16.50;99.90
39099;DHT22;24844;52.380;7.018;2023-08-01T07:01:50;16.50;99.90
39099;DHT22;24844;52.380;7.018;2023-08-01T07:04:15;16.50;99.90
39099;DHT22;24844;52.380;7.018;2023-08-01T07:06:41;16.50;99.90
39099;DHT22;24844;52.380;7.018;2023-08-01T07:09:07;16.30;99.90
39099;DHT22;24844;52.380;7.018;2023-08-01T07:11:32;16.30;99.90
39099;DHT22;24844;52.380;7.018;2023-08-01T07:13:58;16.30;99.90
39099;DHT22;24844;52.380;7.018;2023-08-01T07:16:24;16.30;99.90
39099;DHT22;24844;52.380;7.018;2023-08-01T07:18:50;16.40;99.90
39099;DHT22;24844;52.380;7.018;2023-08-01T07:21:16;16.40;99.90
39099;DHT22;24844;52.380;7.018;2023-08-01T07:23:43;16.40;99.90
39099;DHT22;24844;52.380;7.018;2023-08-01T07:26:09;16.20;99.90
39099;DHT22;24844;52.380;7.018;2023-08-01T07:28:35;16.30;99.90
39099;DHT22;24844;52.380;7.018;2023-08-01T07:31:02;16.30;99.90
39099;DHT22;24844;52.380;7.018;2023-08-01T07:33:28;16.40;99.90
39099;DHT22;24844;52.380;7.018;2023-08-01T07:35:54;16.50;99.90
39099;DHT22;24844;52.380;7.018;2023-08-01T07:38:19;16.70;99.90
39099;DHT22;24844;52.380;7.018;2023-08-01T07:40:45;16.70;99.90
39099;DHT22;24844;52.380;7.018;2023-08-01T07:43:10;16.80;99.90
39099;DHT22;24844;52.380;7.018;2023-08-01T07:45:36;17.00;99.90
39099;DHT22;24844;52.380;7.018;2023-08-01T07:48:02;17.00;99.90
39099;DHT22;24844;52.380;7.018;2023-08-01T07:50:28;17.20;99.90
39099;DHT22;24844;52.380;7.018;2023-08-01T07:52:54;17.40;99.90
39099;DHT22;24844;52.380;7.018;2023-08-01T07:55:20;17.90;99.90
39099;DHT22;24844;52.380;7.018;2023-08-01T07:57:49;18.70;99.90
39099;DHT22;24844;52.380;7.018;2023-08-01T08:00:16;19.40;99.90
39099;DHT22;24844;52.380;7.018;2023-08-01T08:02:42;19.70;99.90
39099;DHT22;24844;52.380;7.018;2023-08-01T08:05:09;20.20;99.90
39099;DHT22;24844;52.380;7.018;2023-08-01T08:07:36;20.80;99.90
39099;DHT22;24844;52.380;7.018;2023-08-01T08:10:02;20.80;99.90
39099;DHT22;24844;52.380;7.018;2023-08-01T08:12:28;20.60;99.90
39099;DHT22;24844;52.380;7.018;2023-08-01T08:14:53;20.00;99.90
39099;DHT22;24844;52.380;7.018;2023-08-01T08:17:19;19.50;99.90
39099;DHT22;24844;52.380;7.018;2023-08-01T08:19:45;19.20;99.90
39099;DHT22;24844;52.380;7.018;2023-08-01T08:22:10;18.80;99.90
39099;DHT22;24844;52.380;7.018;2023-08-01T08:24:36;18.60;99.90
39099;DHT22;24844;52.380;7.018;2023-08-01T08:27:02;18.40;99.90
39099;DHT22;24844;52.380;7.018;2023-08-01T08:29:28;18.10;99.90
39099;DHT22;24844;52.380;7.018;2023-08-01T08:31:53;17.70;99.90
39099;DHT22;24844;52.380;7.018;2023-08-01T08:34:19;17.50;99.90
39099;DHT22;24844;52.380;7.018;2023-08-01T08:36:45;17.30;99.90
39099;DHT22;24844;52.380;7.018;2023-08-01T08:39:11;17.20;99.90
39099;DHT22;24844;52.380;7.018;2023-08-01T08:41:46;17.70;99.90
39099;DHT22;24844;52.380;7.018;2023-08-01T08:44:17;18.40;99.90
39099;DHT22;24844;52.380;7.018;2023-08-01T08:46:49;19.50;99.90
39099;DHT22;24844;52.380;7.018;2023-08-01T08:49:16;20.50;99.90
39099;DHT22;24844;52.380;7.018;2023-08-01T08:51:44;20.50;99.90
39099;DHT22;24844;52.380;7.018;2023-08-01T08:54:11;20.50;99.90
39099;DHT22;24844;52.380;7.018;2023-08-01T08:56:37;20.50;99.90
39099;DHT22;24844;52.380;7.018;2023-08-01T08:59:04;20.50;99.90
39099;DHT22;24844;52.380;7.018;2023-08-01T09:01:31;20.80;99.90
39099;DHT22;24844;52.380;7.018;2023-08-01T09:03:57;20.60;99.90
39099;DHT22;24844;52.380;7.018;2023-08-01T09:06:36;20.80;99.90
39099;DHT22;24844;52.380;7.018;2023-08-01T09:09:13;20.90;99.90
39099;DHT22;24844;52.380;7.018;2023-08-01T09:11:50;20.60;99.90
39099;DHT22;24844;52.380;7.018;2023-08-01T09:14:17;20.40;99.90
39099;DHT22;24844;52.380;7.018;2023-08-01T09:16:44;20.40;99.90
39099;DHT22;24844;52.380;7.018;2023-08-01T09:19:10;20.40;99.90
39099;DHT22;24844;52.380;7.018;2023-08-01T09:21:39;20.80;99.90
39099;DHT22;24844;52.380;7.018;2023-08-01T09:24:12;20.30;99.90
39099;DHT22;24844;52.380;7.018;2023-08-01T09:26:39;20.10;99.90
39099;DHT22;24844;52.380;7.018;2023-08-01T09:29:05;20.40;99.90
39099;DHT22;24844;52.380;7.018;2023-08-01T09:31:32;20.80;99.90
39099;DHT22;24844;52.380;7.018;2023-08-01T09:33:59;20.90;99.90
39099;DHT22;24844;52.380;7.018;2023-08-01T09:36:25;21.00;99.90
39099;DHT22;24844;52.380;7.018;2023-08-01T09:38:51;21.50;99.90
39099;DHT22;24844;52.380;7.018;2023-08-01T09:41:18;21.70;99.90
39099;DHT22;24844;52.380;7.018;2023-08-01T09:43:46;21.10;99.90
39099;DHT22;24844;52.380;7.018;2023-08-01T09:46:12;20.40;99.90
39099;DHT22;24844;52.380;7.018;2023-08-01T09:48:38;19.90;99.90
39099;DHT22;24844;52.380;7.018;2023-08-01T09:51:12;19.60;99.90
39099;DHT22;24844;52.380;7.018;2023-08-01T09:53:50;19.80;99.90
39099;DHT22;24844;52.380;7.018;2023-08-01T09:56:22;20.20;99.90
39099;DHT22;24844;52.380;7.018;2023-08-01T09:58:49;21.30;99.90
39099;DHT22;24844;52.380;7.018;2023-08-01T10:01:17;21.50;99.90
39099;DHT22;24844;52.380;7.018;2023-08-01T10:03:46;21.90;99.90
39099;DHT22;24844;52.380;7.018;2023-08-01T10:06:22;22.30;99.90
39099;DHT22;24844;52.380;7.018;2023-08-01T10:08:49;22.30;99.90
39099;DHT22;24844;52.380;7.018;2023-08-01T10:11:17;22.00;99.90
39099;DHT22;24844;52.380;7.018;2023-08-01T10:13:43;21.70;99.90
39099;DHT22;24844;52.380;7.018;2023-08-01T10:16:13;21.70;99.90
39099;DHT22;24844;52.380;7.018;2023-08-01T10:18:39;21.50;99.90
39099;DHT22;24844;52.380;7.018;2023-08-01T10:21:15;20.80;99.90
39099;DHT22;24844;52.380;7.018;2023-08-01T10:23:42;19.80;99.90
39099;DHT22;24844;52.380;7.018;2023-08-01T10:26:09;19.30;99.90
39099;DHT22;24844;52.380;7.018;2023-08-01T10:28:37;19.10;99.90
39099;DHT22;24844;52.380;7.018;2023-08-01T10:31:21;18.80;99.90
39099;DHT22;24844;52.380;7.018;2023-08-01T10:33:48;18.90;99.90
39099;DHT22;24844;52.380;7.018;2023-08-01T10:38:54;18.50;99.90
39099;DHT22;24844;52.380;7.018;2023-08-01T10:41:25;18.70;99.90
39099;DHT22;24844;52.380;7.018;2023-08-01T10:43:51;18.50;99.90
39099;DHT22;24844;52.380;7.018;2023-08-01T10:46:17;18.30;99.90
39099;DHT22;24844;52.380;7.018;2023-08-01T10:48:50;18.40;99.90
39099;DHT22;24844;52.380;7.018;2023-08-01T10:51:16;18.40;99.90
39099;DHT22;24844;52.380;7.018;2023-08-01T10:53:42;18.10;99.90
39099;DHT22;24844;52.380;7.018;2023-08-01T10:56:08;18.10;99.90
39099;DHT22;24844;52.380;7.018;2023-08-01T10:58:40;18.00;99.90
39099;DHT22;24844;52.380;7.018;2023-08-01T11:01:06;17.80;99.90
39099;DHT22;24844;52.380;7.018;2023-08-01T11:03:38;17.80;99.90
39099;DHT22;24844;52.380;7.018;2023-08-01T11:06:05;17.80;99.90
39099;DHT22;24844;52.380;7.018;2023-08-01T11:08:35;17.80;99.90
39099;DHT22;24844;52.380;7.018;2023-08-01T11:11:00;18.00;99.90
39099;DHT22;24844;52.380;7.018;2023-08-01T11:13:26;18.10;99.90
39099;DHT22;24844;52.380;7.018;2023-08-01T11:15:52;18.00;99.90
39099;DHT22;24844;52.380;7.018;2023-08-01T11:18:19;18.10;99.90
39099;DHT22;24844;52.380;7.018;2023-08-01T11:20:45;17.90;99.90
39099;DHT22;24844;52.380;7.018;2023-08-01T11:23:11;17.80;99.90
39099;DHT22;24844;52.380;7.018;2023-08-01T11:25:45;17.90;99.90
39099;DHT22;24844;52.380;7.018;2023-08-01T11:28:16;17.60;99.90
39099;DHT22;24844;52.380;7.018;2023-08-01T11:30:41;17.40;99.90
39099;DHT22;24844;52.380;7.018;2023-08-01T11:35:41;17.60;99.90
39099;DHT22;24844;52.380;7.018;2023-08-01T11:38:07;17.70;99.90
39099;DHT22;24844;52.380;7.018;2023-08-01T11:40:33;17.90;99.90
39099;DHT22;24844;52.380;7.018;2023-08-01T11:42:59;18.00;99.90
39099;DHT22;24844;52.380;7.018;2023-08-01T11:45:25;18.00;99.90
39099;DHT22;24844;52.380;7.018;2023-08-01T11:47:51;17.90;99.90
39099;DHT22;24844;52.380;7.018;2023-08-01T11:50:21;18.00;99.90
39099;DHT22;24844;52.380;7.018;2023-08-01T11:52:48;17.90;99.90
39099;DHT22;24844;52.380;7.018;2023-08-01T11:55:22;17.90;99.90
39099;DHT22;24844;52.380;7.018;2023-08-01T11:57:58;17.90;99.90
39099;DHT22;24844;52.380;7.018;2023-08-01T12:00:28;18.10;99.90
39099;DHT22;24844;52.380;7.018;2023-08-01T12:03:08;18.20;99.90
39099;DHT22;24844;52.380;7.018;2023-08-01T12:05:39;18.00;99.90
39099;DHT22;24844;52.380;7.018;2023-08-01T12:08:11;17.80;99.90
39099;DHT22;24844;52.380;7.018;2023-08-01T12:10:38;17.90;99.90
39099;DHT22;24844;52.380;7.018;2023-08-01T12:13:04;17.80;99.90
39099;DHT22;24844;52.380;7.018;2023-08-01T12:15:29;17.80;99.90
39099;DHT22;24844;52.380;7.018;2023-08-01T12:17:56;17.60;99.90
39099;DHT22;24844;52.380;7.018;2023-08-01T12:20:22;17.60;99.90
39099;DHT22;24844;52.380;7.018;2023-08-01T12:22:48;17.50;99.90
39099;DHT22;24844;52.380;7.018;2023-08-01T12:25:13;17.50;99.90
39099;DHT22;24844;52.380;7.018;2023-08-01T12:27:39;17.70;99.90
39099;DHT22;24844;52.380;7.018;2023-08-01T12:30:05;17.80;99.90
39099;DHT22;24844;52.380;7.018;2023-08-01T12:32:31;17.90;99.90
39099;DHT22;24844;52.380;7.018;2023-08-01T12:34:56;18.10;99.90
39099;DHT22;24844;52.380;7.018;2023-08-01T12:37:22;18.30;99.90
39099;DHT22;24844;52.380;7.018;2023-08-01T12:39:48;18.40;99.90
39099;DHT22;24844;52.380;7.018;2023-08-01T12:42:13;18.70;99.90
39099;DHT22;24844;52.380;7.018;2023-08-01T12:44:39;18.70;99.90
39099;DHT22;24844;52.380;7.018;2023-08-01T12:47:05;18.50;99.90
39099;DHT22;24844;52.380;7.018;2023-08-01T12:49:33;18.50;99.90
39099;DHT22;24844;52.380;7.018;2023-08-01T12:51:58;18.60;99.90
39099;DHT22;24844;52.380;7.018;2023-08-01T12:54:24;18.80;99.90
39099;DHT22;24844;52.380;7.018;2023-08-01T12:56:49;18.60;99.90
39099;DHT22;24844;52.380;7.018;2023-08-01T12:59:15;18.50;99.90
39099;DHT22;24844;52.380;7.018;2023-08-01T13:01:41;18.40;99.90
39099;DHT22;24844;52.380;7.018;2023-08-01T13:04:06;17.90;99.90
39099;DHT22;24844;52.380;7.018;2023-08-01T13:06:32;17.60;99.90
39099;DHT22;24844;52.380;7.018;2023-08-01T13:08:57;17.50;99.90
39099;DHT22;24844;52.380;7.018;2023-08-01T13:11:24;17.60;99.90
39099;DHT22;24844;52.380;7.018;2023-08-01T13:13:49;17.60;99.90
39099;DHT22;24844;52.380;7.018;2023-08-01T13:16:15;17.90;99.90
39099;DHT22;24844;52.380;7.018;2023-08-01T13:18:41;18.10;99.90
39099;DHT22;24844;52.380;7.018;2023-08-01T13:21:09;18.20;99.90
39099;DHT22;24844;52.380;7.018;2023-08-01T13:23:36;18.30;99.90
39099;DHT22;24844;52.380;7.018;2023-08-01T13:26:01;18.40;99.90
39099;DHT22;24844;52.380;7.018;2023-08-01T13:28:27;18.30;99.90
39099;DHT22;24844;52.380;7.018;2023-08-01T13:30:53;18.30;99.90
39099;DHT22;24844;52.380;7.018;2023-08-01T13:33:19;18.40;99.90
39099;DHT22;24844;52.380;7.018;2023-08-01T13:35:44;18.70;99.90
39099;DHT22;24844;52.380;7.018;2023-08-01T13:38:10;18.50;99.90
39099;DHT22;24844;52.380;7.018;2023-08-01T13:40:36;18.30;99.90
39099;DHT22;24844;52.380;7.018;2023-08-01T13:43:01;18.20;99.90
39099;DHT22;24844;52.380;7.018;2023-08-01T13:45:30;18.30;99.90
39099;DHT22;24844;52.380;7.018;2023-08-01T13:47:56;18.10;99.90
39099;DHT22;24844;52.380;7.018;2023-08-01T13:50:21;18.00;99.90
39099;DHT22;24844;52.380;7.018;2023-08-01T13:52:47;18.10;99.90
39099;DHT22;24844;52.380;7.018;2023-08-01T13:55:12;18.00;99.90
39099;DHT22;24844;52.380;7.018;2023-08-01T13:57:39;18.00;99.90
39099;DHT22;24844;52.380;7.018;2023-08-01T14:00:06;18.00;99.90
39099;DHT22;24844;52.380;7.018;2023-08-01T14:02:32;18.20;99.90
39099;DHT22;24844;52.380;7.018;2023-08-01T14:04:57;18.40;99.90
39099;DHT22;24844;52.380;7.018;2023-08-01T14:07:23;18.40;99.90
39099;DHT22;24844;52.380;7.018;2023-08-01T14:09:48;18.50;99.90
39099;DHT22;24844;52.380;7.018;2023-08-01T14:12:16;18.30;99.90
39099;DHT22;24844;52.380;7.018;2023-08-01T14:14:44;18.10;99.90
39099;DHT22;24844;52.380;7.018;2023-08-01T14:17:10;18.20;99.90
39099;DHT22;24844;52.380;7.018;2023-08-01T14:19:35;18.10;99.90
39099;DHT22;24844;52.380;7.018;2023-08-01T14:22:01;18.00;99.90
39099;DHT22;24844;52.380;7.018;2023-08-01T14:24:28;18.00;99.90
39099;DHT22;24844;52.380;7.018;2023-08-01T14:26:53;18.30;99.90
39099;DHT22;24844;52.380;7.018;2023-08-01T14:29:19;18.50;99.90
39099;DHT22;24844;52.380;7.018;2023-08-01T14:31:48;18.70;99.90
39099;DHT22;24844;52.380;7.018;2023-08-01T14:34:14;18.60;99.90
39099;DHT22;24844;52.380;7.018;2023-08-01T14:36:40;18.30;99.90
39099;DHT22;24844;52.380;7.018;2023-08-01T14:39:06;18.20;99.90
39099;DHT22;24844;52.380;7.018;2023-08-01T14:41:31;18.10;99.90
39099;DHT22;24844;52.380;7.018;2023-08-01T14:43:57;18.00;99.90
39099;DHT22;24844;52.380;7.018;2023-08-01T14:46:22;18.00;99.90
39099;DHT22;24844;52.380;7.018;2023-08-01T14:48:48;17.90;99.90
39099;DHT22;24844;52.380;7.018;2023-08-01T14:51:14;18.10;99.90
39099;DHT22;24844;52.380;7.018;2023-08-01T14:53:39;18.30;99.90
39099;DHT22;24844;52.380;7.018;2023-08-01T14:56:05;18.60;99.90
39099;DHT22;24844;52.380;7.018;2023-08-01T14:58:33;18.70;99.90
39099;DHT22;24844;52.380;7.018;2023-08-01T15:01:05;19.00;99.90
39099;DHT22;24844;52.380;7.018;2023-08-01T15:03:31;19.30;99.90
39099;DHT22;24844;52.380;7.018;2023-08-01T15:05:56;19.40;99.90
39099;DHT22;24844;52.380;7.018;2023-08-01T15:08:29;19.30;99.90
39099;DHT22;24844;52.380;7.018;2023-08-01T15:10:55;19.20;99.90
39099;DHT22;24844;52.380;7.018;2023-08-01T15:13:21;18.80;99.90
39099;DHT22;24844;52.380;7.018;2023-08-01T15:15:46;19.00;99.90
39099;DHT22;24844;52.380;7.018;2023-08-01T15:18:12;18.90;99.90
39099;DHT22;24844;52.380;7.018;2023-08-01T15:20:38;19.10;99.90
39099;DHT22;24844;52.380;7.018;2023-08-01T15:23:06;19.20;99.90
39099;DHT22;24844;52.380;7.018;2023-08-01T15:25:31;19.40;99.90
39099;DHT22;24844;52.380;7.018;2023-08-01T15:27:57;19.10;99.90
39099;DHT22;24844;52.380;7.018;2023-08-01T15:30:23;19.00;99.90